Time;durP1;ratioP1;P1;durP2;ratioP2;P2;SDS_P1;SDS_P2;PMS_P1;PMS_P2;Temp;Humidity;BMP_temperature;BMP_pressure;BME280_temperature;BME280_humidity;BME280_pressure;Samples;Min_cycle;Max_cycle;Signal;HPM_P1;HPM_P2
2024/01/10 00:01:34;;;;;;;;;38.50;32.25;;;;;3.84;67.26;100584.00;5119672;27;45357;-72
2024/01/10 00:04:00;;;;;;;;;44.00;40.75;;;;;3.89;67.12;100577.41;5121446;27;45428;-72
2024/01/10 00:06:25;;;;;;;;;39.25;36.25;;;;;3.92;67.10;100578.50;5120884;27;45811;-72
2024/01/10 00:08:51;;;;;;;;;50.25;42.50;;;;;3.97;66.83;100571.88;5120485;27;45454;-72
2024/01/10 00:11:17;;;;;;;;;42.50;36.00;;;;;3.97;66.96;100566.69;5120766;27;45440;-72
2024/01/10 00:13:42;;;;;;;;;37.25;34.25;;;;;3.95;66.34;100572.59;5120833;27;45440;-71
2024/01/10 00:16:08;;;;;;;;;38.50;34.25;;;;;3.79;66.64;100560.50;5120288;27;45399;-72
2024/01/10 00:18:34;;;;;;;;;39.50;34.75;;;;;3.91;66.70;100587.03;5120341;27;45415;-72
2024/01/10 00:21:00;;;;;;;;;31.75;29.50;;;;;3.90;66.91;100585.25;5121041;27;45545;-72
2024/01/10 00:23:26;;;;;;;;;31.50;25.00;;;;;3.92;67.19;100575.91;5120829;27;45526;-72
2024/01/10 00:25:51;;;;;;;;;30.75;26.75;;;;;3.95;67.07;100572.59;5120390;27;45249;-72
2024/01/10 00:28:17;;;;;;;;;30.75;25.50;;;;;3.97;67.27;100569.28;5120573;27;45468;-72
2024/01/10 00:30:48;;;;;;;;;27.75;24.25;;;;;4.00;67.00;100573.75;5120463;27;45500;-72
2024/01/10 00:33:14;;;;;;;;;26.00;25.75;;;;;3.99;66.78;100562.50;5120747;27;45357;-72
2024/01/10 00:35:39;;;;;;;;;36.00;30.00;;;;;3.94;66.51;100563.97;5120356;27;45486;-72
2024/01/10 00:38:05;;;;;;;;;46.50;42.00;;;;;3.84;67.34;100559.06;5120138;27;45333;-71
2024/01/10 00:40:31;;;;;;;;;34.50;32.25;;;;;3.85;67.63;100542.75;5120638;27;45371;-72
2024/01/10 00:42:56;;;;;;;;;28.50;27.00;;;;;3.70;67.34;100513.44;5120422;27;45554;-72
2024/01/10 00:45:22;;;;;;;;;31.25;27.00;;;;;3.97;67.12;100556.34;5120219;27;45412;-72
2024/01/10 00:47:51;;;;;;;;;33.25;25.25;;;;;4.03;67.47;100561.00;5119967;27;45498;-72
2024/01/10 00:50:17;;;;;;;;;40.25;35.50;;;;;4.06;67.20;100570.59;5120010;27;45305;-72
2024/01/10 00:52:46;;;;;;;;;35.50;33.75;;;;;4.03;67.26;100563.56;5120110;27;45248;-72
2024/01/10 00:55:12;;;;;;;;;40.50;33.50;;;;;3.93;66.95;100538.03;5119795;27;45483;-72
2024/01/10 00:57:38;;;;;;;;;41.00;37.75;;;;;4.03;66.75;100553.22;5119892;27;45473;-72
2024/01/10 01:00:13;;;;;;;;;36.75;33.75;;;;;3.94;66.93;100569.13;5119100;27;45353;-72
2024/01/10 01:02:41;;;;;;;;;33.00;29.00;;;;;3.90;67.42;100572.34;5120223;27;45500;-71
2024/01/10 01:05:07;;;;;;;;;29.50;28.75;;;;;3.87;67.35;100564.41;5119633;27;46139;-72
2024/01/10 01:07:33;;;;;;;;;34.50;28.75;;;;;3.75;67.36;100549.09;5118613;27;45413;-72
2024/01/10 01:09:59;;;;;;;;;42.75;35.75;;;;;3.78;67.31;100561.31;5119888;27;45485;-72
2024/01/10 01:12:25;;;;;;;;;34.75;30.50;;;;;3.62;67.61;100548.28;5120002;27;45442;-72
2024/01/10 01:14:50;;;;;;;;;19.25;17.50;;;;;3.74;67.60;100577.41;5119752;27;45505;-72
2024/01/10 01:17:16;;;;;;;;;26.25;19.00;;;;;3.77;67.76;100570.72;5119653;27;45293;-71
2024/01/10 01:19:42;;;;;;;;;25.25;22.25;;;;;3.86;67.76;100578.16;5119830;27;45351;-72
2024/01/10 01:22:07;;;;;;;;;28.00;25.25;;;;;3.69;67.44;100543.56;5120044;27;45434;-72
2024/01/10 01:24:33;;;;;;;;;27.00;22.50;;;;;3.91;67.60;100571.53;5118334;27;45442;-72
2024/01/10 01:26:59;;;;;;;;;25.00;21.75;;;;;3.90;67.61;100566.25;5119574;27;45348;-72
2024/01/10 01:29:24;;;;;;;;;27.50;22.75;;;;;3.99;67.40;100572.84;5119617;27;45537;-72
2024/01/10 01:31:50;;;;;;;;;40.00;35.00;;;;;3.70;67.15;100514.38;5119678;27;45223;-72
2024/01/10 01:34:16;;;;;;;;;23.25;19.75;;;;;4.06;67.07;100562.84;5119374;27;45164;-72
2024/01/10 01:36:41;;;;;;;;;33.50;26.75;;;;;4.07;67.24;100562.94;5119412;27;45363;-72
2024/01/10 01:39:07;;;;;;;;;24.75;23.00;;;;;3.98;67.70;100549.53;5119543;27;45455;-72
2024/01/10 01:41:32;;;;;;;;;26.25;23.25;;;;;4.08;67.15;100559.56;5119834;27;45383;-72
2024/01/10 01:43:58;;;;;;;;;31.75;27.25;;;;;4.13;67.22;100555.53;5119135;27;45903;-72
2024/01/10 01:46:24;;;;;;;;;26.75;23.25;;;;;4.14;67.59;100554.75;5119208;27;45243;-72
2024/01/10 01:48:52;;;;;;;;;28.50;24.25;;;;;4.16;67.84;100558.31;5119034;27;45527;-72
2024/01/10 01:51:21;;;;;;;;;34.75;30.50;;;;;4.18;67.49;100569.63;5119363;27;45389;-72
2024/01/10 01:53:48;;;;;;;;;34.75;31.00;;;;;4.18;67.23;100561.84;5118936;27;45383;-72
2024/01/10 01:56:15;;;;;;;;;33.25;31.75;;;;;4.03;67.25;100544.59;5119179;27;45340;-71
2024/01/10 01:58:43;;;;;;;;;27.50;25.50;;;;;4.13;67.68;100557.22;5119128;27;45252;-72
2024/01/10 02:01:11;;;;;;;;;31.00;26.50;;;;;4.17;67.50;100554.00;5118609;27;45407;-72
2024/01/10 02:03:37;;;;;;;;;24.25;23.75;;;;;3.92;67.95;100500.97;5119237;27;45272;-72
2024/01/10 02:06:03;;;;;;;;;17.25;14.50;;;;;4.19;67.98;100539.47;5119093;27;45408;-72
2024/01/10 02:08:35;;;;;;;;;15.25;14.75;;;;;4.31;67.65;100549.59;5118913;27;45431;-72
2024/01/10 02:11:02;;;;;;;;;13.50;11.00;;;;;4.32;67.21;100544.53;5119098;27;45257;-71
2024/01/10 02:13:29;;;;;;;;;11.50;11.25;;;;;4.12;67.30;100507.22;5118757;27;46287;-72
2024/01/10 02:15:55;;;;;;;;;13.25;11.00;;;;;4.37;67.58;100537.00;5117410;27;45699;-72
2024/01/10 02:18:20;;;;;;;;;22.75;19.25;;;;;4.40;67.72;100537.19;5118998;27;45444;-72
2024/01/10 02:20:46;;;;;;;;;23.00;22.25;;;;;4.40;67.35;100524.25;5118981;27;45388;-72
2024/01/10 02:23:12;;;;;;;;;36.00;33.00;;;;;4.42;67.18;100535.56;5118530;27;46128;-71
2024/01/10 02:25:40;;;;;;;;;24.50;22.00;;;;;4.43;67.17;100541.63;5118966;27;45324;-72
2024/01/10 02:28:06;;;;;;;;;23.00;22.25;;;;;4.39;66.65;100535.38;5118858;27;45395;-72
2024/01/10 02:30:32;;;;;;;;;23.00;21.25;;;;;4.36;67.08;100525.78;5118876;27;45529;-72
2024/01/10 02:32:58;;;;;;;;;19.50;18.00;;;;;4.36;67.50;100523.19;5118548;27;45979;-72
2024/01/10 02:35:23;;;;;;;;;19.00;17.75;;;;;4.38;67.64;100525.88;5118369;27;45451;-72
2024/01/10 02:37:51;;;;;;;;;17.25;15.25;;;;;4.39;67.03;100527.63;5118371;27;45483;-72
2024/01/10 02:40:17;;;;;;;;;20.00;15.75;;;;;4.37;67.04;100521.47;5118694;27;45337;-72
2024/01/10 02:42:43;;;;;;;;;18.25;16.00;;;;;4.37;66.73;100529.25;5118407;27;45348;-72
2024/01/10 02:45:09;;;;;;;;;19.75;16.75;;;;;4.19;66.82;100517.09;5118726;27;45487;-72
2024/01/10 02:47:36;;;;;;;;;20.25;18.25;;;;;4.19;67.11;100522.25;5118480;27;45517;-72
2024/01/10 02:50:02;;;;;;;;;21.25;20.50;;;;;4.14;67.44;100521.13;5118327;27;46163;-72
2024/01/10 02:52:27;;;;;;;;;20.00;15.50;;;;;3.87;67.41;100473.06;5118164;27;45938;-72
2024/01/10 02:54:53;;;;;;;;;26.25;23.75;;;;;3.96;67.31;100494.28;5118202;27;45446;-72
2024/01/10 02:57:18;;;;;;;;;20.75;18.25;;;;;4.10;67.21;100519.19;5118327;27;45314;-72
2024/01/10 02:59:44;;;;;;;;;19.75;19.00;;;;;4.05;67.65;100510.28;5118489;27;45383;-72
2024/01/10 03:02:10;;;;;;;;;30.25;26.00;;;;;4.13;67.24;100508.09;5118325;27;45620;-72
2024/01/10 03:04:35;;;;;;;;;24.50;22.25;;;;;4.11;67.57;100496.78;5117915;27;45507;-72
2024/01/10 03:07:01;;;;;;;;;20.00;18.75;;;;;4.20;67.23;100499.91;5118433;27;45375;-72
2024/01/10 03:09:27;;;;;;;;;21.75;19.75;;;;;4.25;67.29;100502.72;5118297;27;45541;-72
2024/01/10 03:11:52;;;;;;;;;20.75;18.25;;;;;4.23;67.74;100497.47;5117932;27;45911;-72
2024/01/10 03:14:18;;;;;;;;;20.50;18.25;;;;;4.33;67.46;100509.19;5120214;27;45194;-72
2024/01/10 03:16:43;;;;;;;;;22.75;21.25;;;;;4.33;67.72;100501.44;5121672;27;45538;-72
2024/01/10 03:19:09;;;;;;;;;21.50;18.50;;;;;4.15;67.33;100467.72;5122086;27;45436;-72
2024/01/10 03:21:35;;;;;;;;;18.25;15.50;;;;;4.29;67.27;100484.84;5121613;27;45401;-72
2024/01/10 03:24:01;;;;;;;;;14.50;13.25;;;;;4.47;67.25;100513.41;5121601;27;45196;-72
2024/01/10 03:26:28;;;;;;;;;19.25;16.00;;;;;4.35;66.90;100476.53;5121844;27;45832;-72
2024/01/10 03:28:54;;;;;;;;;19.25;16.50;;;;;4.53;67.56;100511.16;5121529;27;45412;-72
2024/01/10 03:31:20;;;;;;;;;22.25;19.00;;;;;4.54;67.44;100500.00;5121319;27;45490;-72
2024/01/10 03:33:46;;;;;;;;;20.50;15.50;;;;;4.60;67.06;100506.34;5121343;27;45439;-72
2024/01/10 03:36:14;;;;;;;;;19.00;17.00;;;;;4.61;67.20;100500.34;5121774;27;45304;-72
2024/01/10 03:38:40;;;;;;;;;17.00;16.00;;;;;4.59;67.29;100489.91;5121815;27;45297;-72
2024/01/10 03:41:06;;;;;;;;;17.00;16.00;;;;;4.67;66.96;100498.06;5121100;27;45487;-72
2024/01/10 03:43:31;;;;;;;;;18.50;15.50;;;;;4.69;67.31;100499.03;5121279;27;45277;-72
2024/01/10 03:45:57;;;;;;;;;15.75;13.75;;;;;4.61;67.28;100484.81;5121283;27;45474;-72
2024/01/10 03:48:23;;;;;;;;;13.00;13.00;;;;;4.66;66.97;100493.72;5121415;27;45436;-72
2024/01/10 03:50:49;;;;;;;;;15.50;14.75;;;;;4.66;66.97;100493.72;5120966;27;45920;-72
2024/01/10 03:53:15;;;;;;;;;20.75;18.50;;;;;4.61;66.97;100490.88;5121121;27;45441;-72
2024/01/10 03:55:40;;;;;;;;;14.00;12.25;;;;;4.75;67.19;100500.22;5121570;27;45452;-72
2024/01/10 03:58:06;;;;;;;;;19.25;19.00;;;;;4.82;66.62;100506.66;5121326;27;45511;-71
2024/01/10 04:00:32;;;;;;;;;24.75;23.50;;;;;4.90;66.66;100509.63;5120887;27;45966;-72
2024/01/10 04:02:57;;;;;;;;;17.00;15.75;;;;;4.95;66.60;100509.06;5120879;27;45372;-72
2024/01/10 04:05:25;;;;;;;;;15.50;13.50;;;;;4.95;66.83;100500.38;5121082;27;45288;-72
2024/01/10 04:07:51;;;;;;;;;13.00;10.75;;;;;4.84;66.43;100483.44;5121073;27;45567;-72
2024/01/10 04:10:16;;;;;;;;;12.75;11.00;;;;;5.03;66.55;100516.31;5119426;27;46756;-72
2024/01/10 04:12:45;;;;;;;;;10.75;10.00;;;;;5.02;66.71;100517.16;5121034;27;45243;-71
2024/01/10 04:15:11;;;;;;;;;9.00;8.50;;;;;5.07;66.63;100513.06;5121248;27;45456;-72
2024/01/10 04:17:38;;;;;;;;;12.25;11.50;;;;;5.10;66.27;100513.25;5120708;27;45530;-72
2024/01/10 04:20:04;;;;;;;;;12.00;10.25;;;;;5.12;66.68;100509.03;5120410;27;46246;-71
2024/01/10 04:22:30;;;;;;;;;14.25;12.25;;;;;5.12;66.39;100512.50;5120604;27;45535;-72
2024/01/10 04:24:58;;;;;;;;;13.25;12.25;;;;;4.95;66.54;100480.59;5118745;27;45366;-72
2024/01/10 04:27:24;;;;;;;;;15.75;14.25;;;;;5.14;66.23;100516.06;5120945;27;45343;-72
2024/01/10 04:29:49;;;;;;;;;11.75;10.50;;;;;5.16;66.36;100516.16;5120284;27;46068;-72
2024/01/10 04:32:15;;;;;;;;;14.50;12.00;;;;;5.16;66.34;100513.56;5120750;27;45255;-72
2024/01/10 04:34:41;;;;;;;;;14.25;13.25;;;;;5.13;66.58;100509.13;5119342;27;45250;-72
2024/01/10 04:37:09;;;;;;;;;70.75;56.75;;;;;5.13;66.15;100510.81;5120661;27;45474;-72
2024/01/10 04:39:35;;;;;;;;;74.50;58.75;;;;;5.10;66.69;100498.59;5120110;27;46079;-72
2024/01/10 04:42:02;;;;;;;;;78.00;62.00;;;;;5.15;66.71;100510.09;5120282;27;45197;-72
2024/01/10 04:44:27;;;;;;;;;61.00;52.00;;;;;5.15;66.52;100497.16;5120403;27;45216;-72
2024/01/10 04:46:53;;;;;;;;;26.00;23.25;;;;;5.11;66.53;100491.72;5120493;27;45209;-72
2024/01/10 04:49:18;;;;;;;;;22.00;19.00;;;;;5.17;66.35;100502.38;5118690;27;46137;-72
2024/01/10 04:51:46;;;;;;;;;84.33;63.67;;;;;5.13;67.04;100492.69;5120223;27;45430;-72
2024/01/10 04:54:12;;;;;;;;;34.25;28.00;;;;;5.11;66.51;100489.13;5120419;27;45565;-72
2024/01/10 04:56:37;;;;;;;;;76.75;59.75;;;;;5.16;66.53;100490.25;5120254;27;45448;-72
2024/01/10 04:59:03;;;;;;;;;217.50;191.00;;;;;5.23;66.64;100489.72;5120012;27;45542;-71
2024/01/10 05:01:29;;;;;;;;;50.75;39.50;;;;;5.27;66.78;100495.97;5119924;27;45175;-72
2024/01/10 05:03:55;;;;;;;;;51.00;42.00;;;;;5.25;66.59;100482.97;5119965;27;46174;-72
2024/01/10 05:06:21;;;;;;;;;25.25;21.25;;;;;5.21;66.42;100481.00;5120032;27;45280;-72
2024/01/10 05:08:46;;;;;;;;;28.00;25.75;;;;;5.22;66.68;100474.16;5119858;27;45421;-71
2024/01/10 05:11:14;;;;;;;;;27.00;23.75;;;;;5.36;66.33;100492.13;5119644;27;45239;-72
2024/01/10 05:13:39;;;;;;;;;22.75;18.00;;;;;5.40;66.66;100488.00;5119734;27;45306;-72
2024/01/10 05:16:05;;;;;;;;;21.25;20.75;;;;;5.42;66.75;100486.38;5119848;27;45644;-72
2024/01/10 05:18:31;;;;;;;;;54.75;45.75;;;;;5.41;66.65;100489.75;5119476;27;45388;-72
2024/01/10 05:20:57;;;;;;;;;15.50;13.50;;;;;5.32;66.52;100482.44;5119582;27;45359;-72
2024/01/10 05:23:23;;;;;;;;;10.50;9.25;;;;;5.35;66.51;100484.28;5119791;27;45363;-72
2024/01/10 05:25:49;;;;;;;;;14.00;12.00;;;;;5.34;66.30;100479.94;5119958;27;45700;-72
2024/01/10 05:28:15;;;;;;;;;7.75;6.00;;;;;5.50;66.84;100502.31;5119843;27;45492;-72
2024/01/10 05:30:42;;;;;;;;;6.00;6.00;;;;;5.50;66.47;100507.50;5118980;27;45312;-71
2024/01/10 05:33:08;;;;;;;;;5.25;5.00;;;;;5.55;66.42;100513.75;5118252;27;45574;-72
2024/01/10 05:35:35;;;;;;;;;9.00;8.00;;;;;5.45;66.35;100483.03;5118870;27;45376;-72
2024/01/10 05:38:02;;;;;;;;;11.25;10.00;;;;;5.66;66.10;100507.41;5117340;27;46059;-72
2024/01/10 05:40:30;;;;;;;;;12.00;10.50;;;;;5.66;66.40;100506.53;5117386;27;45476;-71
2024/01/10 05:42:56;;;;;;;;;12.50;12.50;;;;;5.54;66.33;100489.56;5118777;27;45273;-71
2024/01/10 05:45:22;;;;;;;;;13.00;10.50;;;;;5.74;66.08;100512.97;5119072;27;45570;-71
2024/01/10 05:47:48;;;;;;;;;12.00;10.75;;;;;5.83;65.42;100517.72;5118859;27;45269;-72
2024/01/10 05:50:14;;;;;;;;;6.00;6.00;;;;;5.88;65.36;100518.84;5118823;27;45396;-72
2024/01/10 05:52:39;;;;;;;;;12.25;10.00;;;;;5.95;64.77;100523.56;5117350;27;45735;-71
2024/01/10 05:55:08;;;;;;;;;18.00;15.50;;;;;5.84;64.64;100488.41;5119000;27;45372;-71
2024/01/10 05:57:34;;;;;;;;;11.50;8.00;;;;;6.06;64.75;100518.88;5119146;27;45360;-71
2024/01/10 06:00:00;;;;;;;;;5.00;4.75;;;;;6.10;64.74;100513.00;5119052;27;45232;-72
2024/01/10 06:02:26;;;;;;;;;3.25;2.75;;;;;6.15;64.68;100507.22;5119071;27;45492;-72
2024/01/10 06:04:52;;;;;;;;;2.00;2.00;;;;;6.10;64.39;100474.09;5119354;27;45416;-72
2024/01/10 06:07:20;;;;;;;;;2.75;2.00;;;;;6.28;64.79;100494.81;5119218;27;46182;-72
2024/01/10 06:09:46;;;;;;;;;2.00;2.00;;;;;6.24;64.88;100478.22;5119158;27;45352;-72
2024/01/10 06:12:12;;;;;;;;;2.00;1.25;;;;;6.32;65.36;100481.16;5118871;27;45434;-72
2024/01/10 06:14:39;;;;;;;;;4.50;1.75;;;;;6.35;65.41;100473.53;5118886;27;45329;-71
2024/01/10 06:17:05;;;;;;;;;3.50;3.25;;;;;6.37;65.71;100474.50;5118809;27;45489;-72
2024/01/10 06:19:31;;;;;;;;;2.25;2.00;;;;;6.41;65.46;100473.81;5118611;27;45549;-71
2024/01/10 06:21:58;;;;;;;;;1.50;1.50;;;;;6.22;65.98;100438.34;5118533;27;45317;-72
2024/01/10 06:24:24;;;;;;;;;2.00;2.00;;;;;6.26;66.18;100450.63;5118657;27;45352;-72
2024/01/10 06:26:50;;;;;;;;;2.00;2.00;;;;;6.47;66.23;100478.41;5118572;27;46088;-71
2024/01/10 06:29:16;;;;;;;;;2.75;2.00;;;;;6.32;66.30;100450.03;5118347;27;45478;-72
2024/01/10 06:31:42;;;;;;;;;3.25;2.50;;;;;6.48;66.22;100475.84;5118378;27;45509;-71
2024/01/10 06:34:08;;;;;;;;;5.75;5.75;;;;;6.55;66.64;100484.81;5118203;27;45448;-72
2024/01/10 06:36:35;;;;;;;;;14.00;14.00;;;;;6.37;66.58;100439.06;5116718;27;45579;-71
2024/01/10 06:39:01;;;;;;;;;9.25;8.75;;;;;6.52;66.48;100457.00;5118069;27;45449;-72
2024/01/10 06:41:27;;;;;;;;;35.25;35.00;;;;;6.62;66.52;100465.22;5118291;27;45900;-72
2024/01/10 06:43:54;;;;;;;;;18.50;18.50;;;;;6.61;66.42;100469.53;5118645;27;45480;-71
2024/01/10 06:46:20;;;;;;;;;14.25;11.00;;;;;6.61;66.59;100473.84;5118382;27;45430;-71
2024/01/10 06:48:47;;;;;;;;;17.75;15.75;;;;;6.70;66.71;100489.81;5123789;27;45823;-72
2024/01/10 06:51:13;;;;;;;;;18.50;17.75;;;;;6.68;66.59;100487.13;5124920;27;45472;-71
2024/01/10 06:53:40;;;;;;;;;23.00;21.75;;;;;6.70;66.56;100484.59;5125456;27;45391;-71
2024/01/10 06:56:07;;;;;;;;;43.75;35.00;;;;;6.73;66.32;100475.25;5124678;27;45305;-71
2024/01/10 06:58:33;;;;;;;;;20.50;18.25;;;;;6.73;66.37;100479.56;5124938;27;45160;-72
2024/01/10 07:01:04;;;;;;;;;22.50;21.75;;;;;6.75;66.82;100481.41;5124913;27;45554;-71
2024/01/10 07:03:30;;;;;;;;;5.75;5.00;;;;;6.79;65.90;100482.44;5125224;27;45526;-72
2024/01/10 07:05:57;;;;;;;;;2.75;2.00;;;;;6.81;65.46;100473.00;5124699;27;45974;-71
2024/01/10 07:08:22;;;;;;;;;1.75;1.75;;;;;6.84;65.37;100472.22;5123049;27;45471;-71
2024/01/10 07:10:48;;;;;;;;;3.00;2.00;;;;;6.84;65.20;100464.44;5124111;27;45344;-72
2024/01/10 07:13:14;;;;;;;;;2.50;2.00;;;;;6.70;64.81;100430.97;5124496;27;46055;-71
2024/01/10 07:15:39;;;;;;;;;3.00;3.00;;;;;6.91;64.68;100462.19;5124107;27;46009;-72
2024/01/10 07:18:06;;;;;;;;;7.50;6.75;;;;;6.92;64.21;100457.88;5124766;27;45428;-71
2024/01/10 07:20:32;;;;;;;;;5.75;5.75;;;;;6.98;64.26;100468.53;5124900;27;45478;-72
2024/01/10 07:22:59;;;;;;;;;11.25;9.25;;;;;7.01;64.28;100462.59;5124710;27;45522;-72
2024/01/10 07:25:25;;;;;;;;;24.25;23.00;;;;;7.02;64.14;100461.75;5124472;27;46225;-72
2024/01/10 07:27:51;;;;;;;;;22.00;18.75;;;;;6.82;64.18;100422.81;5124784;27;46124;-71
2024/01/10 07:30:17;;;;;;;;;56.75;45.75;;;;;7.09;64.02;100464.69;5124362;27;45482;-72
2024/01/10 07:32:44;;;;;;;;;27.00;24.25;;;;;7.02;63.64;100446.16;5124862;27;45301;-71
2024/01/10 07:35:10;;;;;;;;;31.25;27.25;;;;;7.16;63.80;100468.41;5124634;27;45335;-72
2024/01/10 07:37:40;;;;;;;;;19.00;16.25;;;;;7.20;63.42;100472.03;5124347;27;45514;-72
2024/01/10 07:40:10;;;;;;;;;31.00;28.50;;;;;7.19;63.48;100463.38;5124411;27;45242;-72
2024/01/10 07:42:37;;;;;;;;;104.75;100.25;;;;;7.27;63.29;100472.38;5124451;27;45458;-72
2024/01/10 07:45:07;;;;;;;;;65.75;52.75;;;;;7.30;63.68;100472.50;5124395;27;45981;-72
2024/01/10 07:47:42;;;;;;;;;41.75;40.25;;;;;7.32;63.24;100482.94;5124509;27;45472;-70
2024/01/10 07:50:09;;;;;;;;;34.00;29.75;;;;;7.31;63.74;100482.06;5122786;27;45280;-71
2024/01/10 07:52:35;;;;;;;;;77.25;59.25;;;;;7.37;64.18;100486.63;5121248;27;45322;-71
2024/01/10 07:55:08;;;;;;;;;28.50;27.25;;;;;7.36;64.23;100487.44;5123809;27;45955;-70
2024/01/10 07:57:34;;;;;;;;;59.50;45.25;;;;;7.38;64.33;100488.41;5124074;27;45385;-71
2024/01/10 08:00:00;;;;;;;;;32.25;30.50;;;;;7.35;64.60;100481.38;5120307;27;45520;-70
2024/01/10 08:02:26;;;;;;;;;44.25;37.50;;;;;7.33;64.64;100484.72;5120774;27;45419;-70
2024/01/10 08:04:53;;;;;;;;;50.50;39.75;;;;;7.43;64.30;100497.28;5120338;27;46264;-71
2024/01/10 08:07:19;;;;;;;;;84.00;60.50;;;;;7.43;64.86;100493.81;5118353;27;45497;-72
2024/01/10 08:09:45;;;;;;;;;36.25;30.50;;;;;7.27;64.40;100453.28;5119592;27;45585;-72
2024/01/10 08:12:11;;;;;;;;;37.25;33.75;;;;;7.48;63.17;100492.25;5119993;27;45319;-70
2024/01/10 08:14:37;;;;;;;;;20.50;16.00;;;;;7.52;63.03;100489.88;5120041;27;46198;-70
2024/01/10 08:17:04;;;;;;;;;16.75;16.25;;;;;7.55;62.66;100483.91;5120302;27;45486;-70
2024/01/10 08:19:29;;;;;;;;;19.50;17.25;;;;;7.39;62.31;100452.91;5120275;27;45299;-70
2024/01/10 08:21:55;;;;;;;;;39.25;33.75;;;;;7.63;61.90;100492.03;5120915;27;45466;-70
2024/01/10 08:24:21;;;;;;;;;16.25;11.25;;;;;7.50;61.34;100462.03;5120253;27;45971;-70
2024/01/10 08:26:51;;;;;;;;;7.00;6.75;;;;;7.56;61.35;100470.09;5120386;27;45332;-70
2024/01/10 08:29:20;;;;;;;;;18.25;18.00;;;;;7.79;61.16;100496.13;5120295;27;45399;-70
2024/01/10 08:31:46;;;;;;;;;33.50;32.25;;;;;7.82;61.78;100502.34;5120412;27;45245;-70
2024/01/10 08:34:12;;;;;;;;;48.00;39.75;;;;;7.85;61.87;100506.78;5120203;27;45320;-70
2024/01/10 08:36:38;;;;;;;;;41.75;36.50;;;;;7.80;62.00;100495.28;5120247;27;45321;-70
2024/01/10 08:39:04;;;;;;;;;34.25;29.00;;;;;7.94;62.11;100515.84;5120239;27;45407;-70
2024/01/10 08:41:30;;;;;;;;;46.25;41.25;;;;;7.90;62.20;100513.06;5120493;27;45454;-70
2024/01/10 08:43:56;;;;;;;;;38.50;35.50;;;;;7.73;62.05;100473.38;5120239;27;45392;-70
2024/01/10 08:46:23;;;;;;;;;56.00;44.25;;;;;7.96;62.08;100510.72;5119810;27;45459;-71
2024/01/10 08:48:48;;;;;;;;;21.75;20.00;;;;;7.88;61.80;100488.72;5120392;27;45412;-70
2024/01/10 08:51:16;;;;;;;;;27.50;26.75;;;;;8.14;60.92;100524.44;5119962;27;45503;-70
2024/01/10 08:53:42;;;;;;;;;17.00;16.75;;;;;8.03;61.34;100498.81;5119849;27;46240;-70
2024/01/10 08:56:08;;;;;;;;;33.75;29.75;;;;;8.25;61.31;100534.38;5118285;27;45526;-70
2024/01/10 08:58:34;;;;;;;;;21.75;16.75;;;;;8.26;61.13;100529.25;5119901;27;45301;-70
2024/01/10 09:00:59;;;;;;;;;15.00;14.75;;;;;8.25;61.48;100529.16;5118999;27;45564;-70
2024/01/10 09:03:25;;;;;;;;;24.25;22.25;;;;;8.04;61.27;100503.19;5120022;27;45396;-70
2024/01/10 09:05:50;;;;;;;;;20.50;18.50;;;;;8.23;61.34;100541.25;5119764;27;45506;-70
2024/01/10 09:08:17;;;;;;;;;17.25;16.00;;;;;8.21;61.21;100528.16;5119516;27;45388;-70
2024/01/10 09:10:42;;;;;;;;;22.50;21.00;;;;;8.17;61.44;100528.88;5118533;27;45338;-71
2024/01/10 09:13:09;;;;;;;;;26.75;25.50;;;;;8.20;61.56;100538.50;5119340;27;45308;-70
2024/01/10 09:15:34;;;;;;;;;21.25;18.00;;;;;8.03;60.92;100501.44;5119469;27;45450;-70
2024/01/10 09:18:00;;;;;;;;;26.50;25.25;;;;;8.25;61.22;100539.59;5120016;27;45447;-70
2024/01/10 09:20:25;;;;;;;;;17.00;15.75;;;;;8.31;61.14;100542.41;5119904;27;45390;-70
2024/01/10 09:22:51;;;;;;;;;63.00;48.00;;;;;8.36;60.92;100538.28;5118961;27;45491;-70
2024/01/10 09:25:17;;;;;;;;;83.00;64.75;;;;;8.28;60.80;100508.47;5119173;27;45303;-71
2024/01/10 09:27:44;;;;;;;;;91.00;74.33;;;;;8.49;60.88;100524.06;5119332;27;45574;-70
2024/01/10 09:30:11;;;;;;;;;94.67;78.00;;;;;8.45;61.06;100497.00;5119292;27;45534;-70
2024/01/10 09:32:37;;;;;;;;;70.50;57.75;;;;;8.67;60.75;100521.25;5119041;27;47349;-70
2024/01/10 09:35:03;;;;;;;;;102.00;86.00;;;;;8.75;60.42;100519.81;5119224;27;45304;-70
2024/01/10 09:37:29;;;;;;;;;74.75;57.25;;;;;8.86;60.39;100523.72;5119359;27;45232;-70
2024/01/10 09:39:55;;;;;;;;;27.50;27.00;;;;;8.97;60.40;100524.09;5119608;27;45554;-70
2024/01/10 09:42:25;;;;;;;;;24.75;20.50;;;;;9.07;60.21;100515.78;5119179;27;45343;-70
2024/01/10 09:44:52;;;;;;;;;46.00;40.75;;;;;9.18;60.24;100518.75;5118915;27;45241;-70
2024/01/10 09:47:20;;;;;;;;;42.00;37.00;;;;;9.24;59.88;100521.56;5119418;27;45424;-70
2024/01/10 09:49:46;;;;;;;;;12.50;11.75;;;;;9.30;59.90;100521.78;5119186;27;45321;-70
2024/01/10 09:52:21;;;;;;;;;16.75;16.00;;;;;9.35;59.83;100529.75;5118760;27;46393;-71
2024/01/10 09:54:49;;;;;;;;;8.75;8.50;;;;;9.42;59.86;100530.88;5118921;27;45420;-71
2024/01/10 09:57:15;;;;;;;;;12.00;11.00;;;;;9.46;59.54;100528.41;5118902;27;45463;-70
2024/01/10 09:59:43;;;;;;;;;13.25;12.75;;;;;9.36;59.72;100518.50;5119198;27;45248;-70
2024/01/10 10:02:09;;;;;;;;;22.50;19.50;;;;;9.47;59.40;100538.03;5119035;27;46136;-70
2024/01/10 10:04:37;;;;;;;;;18.50;18.00;;;;;9.35;58.95;100511.50;5118802;27;45379;-70
2024/01/10 10:07:03;;;;;;;;;20.25;17.25;;;;;9.38;59.14;100523.78;5119292;27;45263;-70
2024/01/10 10:09:31;;;;;;;;;57.25;46.25;;;;;9.36;59.11;100523.72;5119269;27;45415;-71
2024/01/10 10:11:59;;;;;;;;;72.75;55.75;;;;;9.46;59.65;100545.78;5118508;27;46111;-70
2024/01/10 10:14:29;;;;;;;;;62.25;49.00;;;;;9.43;59.01;100553.50;5118516;27;45421;-70
2024/01/10 10:16:55;;;;;;;;;64.00;50.75;;;;;9.41;59.56;100549.94;5118781;27;45285;-70
2024/01/10 10:19:24;;;;;;;;;42.75;37.00;;;;;9.42;59.53;100551.75;5118822;27;45372;-70
2024/01/10 10:21:50;;;;;;;;;51.50;44.00;;;;;9.40;59.87;100561.22;5116545;27;45796;-70
2024/01/10 10:24:16;;;;;;;;;46.75;38.50;;;;;9.31;59.86;100564.38;5118148;27;45442;-70
2024/01/10 10:26:42;;;;;;;;;50.75;43.75;;;;;9.28;59.95;100569.50;5118182;27;45553;-70
2024/01/10 10:29:09;;;;;;;;;43.00;36.00;;;;;9.32;60.22;100581.81;5118294;27;45443;-71
2024/01/10 10:31:35;;;;;;;;;45.25;39.25;;;;;9.34;60.27;100573.19;5118381;27;45981;-70
2024/01/10 10:34:02;;;;;;;;;62.75;51.25;;;;;9.35;60.32;100581.91;5118348;27;45452;-70
2024/01/10 10:36:30;;;;;;;;;54.75;43.00;;;;;9.35;60.26;100589.72;5118224;27;45475;-70
2024/01/10 10:38:59;;;;;;;;;52.00;41.50;;;;;9.34;60.36;100594.06;5118487;27;45241;-70
2024/01/10 10:41:27;;;;;;;;;55.25;45.50;;;;;9.34;60.59;100590.56;5118014;27;46123;-70
2024/01/10 10:43:54;;;;;;;;;49.00;42.25;;;;;9.33;60.58;100592.28;5118348;27;45270;-70
2024/01/10 10:46:22;;;;;;;;;57.00;48.50;;;;;9.32;60.40;100592.25;5118577;27;45484;-70
2024/01/10 10:48:48;;;;;;;;;54.50;44.25;;;;;9.32;60.97;100594.84;5118508;27;45347;-70
2024/01/10 10:51:23;;;;;;;;;46.25;39.50;;;;;9.31;60.88;100607.00;5116573;27;47125;-70
2024/01/10 10:53:50;;;;;;;;;38.75;37.00;;;;;9.18;60.91;100585.66;5118307;27;45388;-70
2024/01/10 10:56:17;;;;;;;;;42.25;38.00;;;;;9.21;61.39;100589.25;5118249;27;45301;-70
2024/01/10 10:58:44;;;;;;;;;25.75;23.75;;;;;9.31;62.15;100614.81;5118453;27;45298;-70
2024/01/10 11:01:12;;;;;;;;;12.00;11.00;;;;;9.32;62.19;100606.16;5117798;27;45528;-70
2024/01/10 11:03:44;;;;;;;;;13.75;11.50;;;;;9.33;62.66;100610.53;5117904;27;45347;-70
2024/01/10 11:06:10;;;;;;;;;10.75;9.25;;;;;9.06;62.60;100547.88;5117943;27;45420;-70
2024/01/10 11:08:50;;;;;;;;;13.00;13.00;;;;;9.40;62.00;100597.72;5118399;27;45598;-70
2024/01/10 11:11:31;;;;;;;;;16.75;16.00;;;;;9.44;62.00;100584.84;5117733;27;46444;-70
2024/01/10 11:14:15;;;;;;;;;22.75;20.75;;;;;9.48;61.89;100583.22;5118030;27;46064;-69
2024/01/10 11:17:18;;;;;;;;;22.25;22.00;;;;;9.50;62.02;100581.56;5118007;27;45444;-70